Coral Palmata — ELWC5 — position and weather

sailwx.info

Track history (hours):
 
Tides and Currents Weather Stations Pressure Air Temp Water Temp Dewpoint Dewpoint Depression Visibility Wind Speed Wind Dir Waves Ship Positions

Coral Palmata

Last reported at 2018-Feb-19 18:44 UTC. Time now 2018-Feb-20 00:18 UTC.
Position N 35°60' W 005°13'.

Length 115 m; beam 17 m.

Type: Tanker. MMSI: 636010990.

Date/timePositionNaut miles runAvg speedWind from/ knotsBaromVisibWave heightAir tempDewpointWater temp
2018-Feb-19 18:44N 35°60' W 005°13'416.9
2018-Feb-19 18:30N 35°59' W 005°18'816.5
2018-Feb-19 18:00N 35°57' W 005°28'21913.2
2018-Feb-19 01:20N 37°09' W 009°46'1414.2
2018-Feb-19 00:19N 37°23' W 009°50'514.8
2018-Feb-19 00:01N 37°28' W 009°51'714.3
2018-Feb-18 23:30N 37°35' W 009°53'714.0
2018-Feb-18 23:01N 37°41' W 009°55'713.9
2018-Feb-18 22:30N 37°48' W 009°56'714.2
2018-Feb-18 22:00N 37°55' W 009°58'714.5
2018-Feb-18 21:31N 38°02' W 010°00'714.5
2018-Feb-18 21:01N 38°09' W 010°02'714.6
2018-Feb-18 20:30N 38°16' W 010°05'714.4
2018-Feb-18 20:00N 38°23' W 010°06'714.3
2018-Feb-18 19:30N 38°30' W 010°08'814.6
2018-Feb-18 18:59N 38°38' W 010°10'714.4
2018-Feb-18 18:29N 38°45' W 010°11'714.3
2018-Feb-18 18:00N 38°52' W 010°11'714.2
2018-Feb-18 17:30N 38°59' W 010°11'714.3
2018-Feb-18 17:00N 39°06' W 010°12'714.0
2018-Feb-18 16:30N 39°13' W 010°12'61913.6
2018-Feb-16 18:56N 48°59' W 005°33'912.5
2018-Feb-16 18:12N 49°04' W 005°21'312.1
2018-Feb-16 17:58N 49°05' W 005°17'8313.3
2018-Feb-16 11:42N 49°46' W 003°26'314.8
2018-Feb-16 11:30N 49°48' W 003°22'814.5
2018-Feb-16 10:58N 49°52' W 003°12'614.0
2018-Feb-16 10:30N 49°55' W 003°03'1512.8
2018-Feb-16 09:18N 50°00' W 002°41'2310.9
2018-Feb-16 07:14N 50°06' W 002°07'310.7
2018-Feb-16 07:00N 50°07' W 002°03'611.2
2018-Feb-16 06:30N 50°08' W 001°55'612.0
2018-Feb-16 06:00N 50°10' W 001°46'613.0
2018-Feb-16 05:31N 50°12' W 001°36'714.0
2018-Feb-16 05:01N 50°14' W 001°25'4215.9
2018-Feb-16 02:21N 50°26' W 000°22'515.2
2018-Feb-16 02:00N 50°28' W 000°14'714.9
2018-Feb-16 01:31N 50°29' W 000°03'714.5
2018-Feb-16 01:00N 50°31' E 000°08'714.1
2018-Feb-16 00:30N 50°33' E 000°19'913.7
2018-Feb-15 23:53N 50°35' E 000°32'513.2
2018-Feb-15 23:30N 50°38' E 000°38'713.2
2018-Feb-15 22:59N 50°42' E 000°47'613.1
2018-Feb-15 22:30N 50°46' E 000°54'713.2
2018-Feb-15 21:59N 50°51' E 001°03'713.7
2018-Feb-15 21:29N 50°55' E 001°11'714.6
2018-Feb-15 20:58N 51°00' E 001°20'816.3
2018-Feb-15 20:31N 51°05' E 001°29'917.5
2018-Feb-15 20:00N 51°10' E 001°40'816.7
2018-Feb-15 19:30N 51°17' E 001°48'816.2
2018-Feb-15 19:01N 51°24' E 001°54'815.4
2018-Feb-15 18:30N 51°30' E 002°02'714.6
2018-Feb-15 18:01N 51°36' E 002°09'714.3
2018-Feb-15 17:30N 51°41' E 002°17'713.6
2018-Feb-15 16:59N 51°46' E 002°25'1312.8
2018-Feb-15 15:59N 51°56' E 002°38'1112.6
2018-Feb-15 15:09N 52°05' E 002°48'40910.6
2018-Feb-14 00:45N 57°59' E 008°43'313.9
2018-Feb-14 00:30N 58°02' E 008°47'1014.2
2018-Feb-13 23:49N 58°09' E 008°60'514.7
2018-Feb-13 23:29N 58°13' E 009°06'2714.3
2018-Feb-13 21:34N 58°34' E 009°39'114.2
2018-Feb-13 21:29N 58°35' E 009°40'714.5
2018-Feb-13 21:00N 58°42' E 009°42'715.2
2018-Feb-13 20:30N 58°49' E 009°44'714.6
2018-Feb-13 20:00N 58°56' E 009°47'510.4
2018-Feb-13 19:30N 59°01' E 009°45'4 8.5
2018-Feb-13 19:00N 59°04' E 009°39'2 4.1
2018-Feb-13 18:30N 59°06' E 009°36'0 0.0
2018-Feb-13 18:00N 59°06' E 009°36'0 0.0
2018-Feb-13 17:30N 59°06' E 009°36'0 0.0
2018-Feb-13 17:00N 59°06' E 009°36'0 0.0
2018-Feb-13 16:30N 59°06' E 009°36'0 0.0
2018-Feb-13 16:00N 59°06' E 009°36'0 0.0
2018-Feb-13 15:30N 59°06' E 009°36'0 0.0
2018-Feb-13 15:00N 59°06' E 009°36'0 0.0
2018-Feb-13 14:30N 59°06' E 009°36'0 0.0
2018-Feb-13 14:00N 59°06' E 009°36'0 0.0
2018-Feb-13 13:30N 59°06' E 009°36'0 0.0
2018-Feb-13 13:00N 59°06' E 009°36'0 0.0
2018-Feb-13 12:30N 59°06' E 009°36'0 0.0
2018-Feb-13 12:00N 59°06' E 009°36'0 0.0
2018-Feb-13 11:30N 59°06' E 009°36'0 0.0
2018-Feb-13 11:00N 59°06' E 009°36'0 0.0
2018-Feb-13 10:30N 59°06' E 009°36'0 0.0
2018-Feb-13 09:59N 59°06' E 009°36'0 0.0
2018-Feb-13 09:29N 59°06' E 009°36'0 0.0
2018-Feb-13 08:59N 59°06' E 009°36'0 0.0
2018-Feb-13 08:29N 59°06' E 009°36'0 0.0
2018-Feb-13 07:59N 59°06' E 009°36'0 0.0
2018-Feb-13 07:29N 59°06' E 009°36'0 0.0
2018-Feb-13 06:59N 59°06' E 009°36'0 0.0
2018-Feb-13 06:29N 59°06' E 009°36'0 0.0
2018-Feb-13 05:59N 59°06' E 009°36'0 0.0
2018-Feb-13 05:29N 59°06' E 009°36'0 0.0
2018-Feb-13 04:59N 59°06' E 009°36'0 0.0
2018-Feb-13 04:29N 59°06' E 009°36'0 0.0
2018-Feb-13 03:59N 59°06' E 009°36'0 0.0
2018-Feb-13 03:29N 59°06' E 009°36'0 0.0
2018-Feb-13 02:59N 59°06' E 009°36'0 0.0
2018-Feb-13 02:29N 59°06' E 009°36'0 0.0
2018-Feb-13 01:59N 59°06' E 009°36'0 0.0
2018-Feb-13 01:29N 59°06' E 009°36'0 0.0
2018-Feb-13 00:59N 59°06' E 009°36'0 0.5
2018-Feb-13 00:30N 59°06' E 009°36'1 2.2
2018-Feb-13 00:00N 59°06' E 009°38'0 0.0
2018-Feb-12 23:30N 59°06' E 009°38'0 0.0
2018-Feb-12 23:00N 59°06' E 009°38'0 0.0
2018-Feb-12 22:30N 59°06' E 009°38'0 0.0
2018-Feb-12 22:00N 59°06' E 009°38'0 0.0
2018-Feb-12 21:30N 59°06' E 009°38'0 0.0
2018-Feb-12 21:00N 59°06' E 009°38'0 0.0
2018-Feb-12 20:30N 59°06' E 009°38'0 0.0
2018-Feb-12 20:00N 59°06' E 009°38'0 0.1
2018-Feb-12 19:30N 59°06' E 009°38'0 0.0
2018-Feb-12 19:00N 59°06' E 009°38'0 0.0
2018-Feb-12 18:30N 59°06' E 009°38'0 0.0
2018-Feb-12 18:00N 59°06' E 009°38'0 0.0
2018-Feb-12 17:30N 59°06' E 009°38'0 0.0
2018-Feb-12 17:00N 59°06' E 009°38'0 0.0
2018-Feb-12 16:30N 59°06' E 009°38'0 0.0
2018-Feb-12 16:00N 59°06' E 009°38'0 0.0
2018-Feb-12 15:30N 59°06' E 009°38'0 0.1
2018-Feb-12 15:00N 59°06' E 009°38'0 0.0
2018-Feb-12 14:30N 59°06' E 009°38'0 0.0
2018-Feb-12 14:00N 59°06' E 009°38'0 0.0
2018-Feb-12 13:30N 59°06' E 009°38'0 0.0
2018-Feb-12 13:00N 59°06' E 009°38'0 0.0
2018-Feb-12 12:30N 59°06' E 009°38'0 0.0
2018-Feb-12 12:00N 59°06' E 009°38'0 0.0
2018-Feb-12 11:30N 59°06' E 009°38'0 0.1
2018-Feb-12 11:00N 59°06' E 009°38'0 0.0
2018-Feb-12 10:30N 59°06' E 009°38'0 0.0
2018-Feb-12 10:00N 59°06' E 009°38'0 0.1
2018-Feb-12 09:30N 59°06' E 009°38'0 0.0
2018-Feb-12 09:00N 59°06' E 009°38'0 0.0
2018-Feb-12 08:30N 59°06' E 009°38'0 0.0
2018-Feb-12 08:00N 59°06' E 009°38'0 0.0
2018-Feb-12 07:30N 59°06' E 009°38'0 0.1
2018-Feb-12 07:00N 59°06' E 009°38'0 0.1
2018-Feb-12 06:30N 59°06' E 009°38'0 0.0
2018-Feb-12 06:00N 59°06' E 009°38'0 0.0
2018-Feb-12 05:30N 59°06' E 009°38'0 0.0
2018-Feb-12 05:00N 59°06' E 009°38'0 0.0
2018-Feb-12 04:30N 59°06' E 009°38'0 0.0
2018-Feb-12 04:00N 59°06' E 009°38'0 0.0
2018-Feb-12 03:30N 59°06' E 009°38'0 0.0
2018-Feb-12 03:00N 59°06' E 009°38'0 0.0
2018-Feb-12 02:30N 59°06' E 009°38'0 0.0
2018-Feb-12 02:00N 59°06' E 009°38'0 0.0
2018-Feb-12 01:30N 59°06' E 009°38'0 0.0
2018-Feb-12 01:00N 59°06' E 009°38'0 0.1
2018-Feb-12 00:30N 59°06' E 009°38'0 0.0
2018-Feb-12 00:00N 59°06' E 009°38'0 0.0
2018-Feb-11 23:30N 59°06' E 009°38'0 0.1
2018-Feb-11 23:00N 59°06' E 009°38'0 0.0
2018-Feb-11 22:30N 59°06' E 009°38'0 0.0
2018-Feb-11 22:00N 59°06' E 009°38'0 0.0
2018-Feb-11 21:30N 59°06' E 009°38'0 0.1
2018-Feb-11 21:00N 59°06' E 009°38'0 0.1
2018-Feb-11 20:30N 59°06' E 009°38'0 0.0
2018-Feb-11 20:00N 59°06' E 009°38'0 0.0
2018-Feb-11 19:30N 59°06' E 009°38'0 0.0
2018-Feb-11 19:00N 59°06' E 009°38'0 0.0
2018-Feb-11 18:30N 59°06' E 009°38'0 0.0
2018-Feb-11 18:00N 59°06' E 009°38'0 0.0
2018-Feb-11 17:30N 59°06' E 009°38'0 0.0
2018-Feb-11 17:00N 59°06' E 009°38'0 0.0
2018-Feb-11 16:30N 59°06' E 009°38'0 0.0
2018-Feb-11 16:00N 59°06' E 009°38'0 0.0
2018-Feb-11 15:30N 59°06' E 009°38'0 0.0
2018-Feb-11 15:00N 59°06' E 009°38'0 0.0
2018-Feb-11 14:30N 59°06' E 009°38'0 0.0
2018-Feb-11 14:00N 59°06' E 009°38'0 0.0
2018-Feb-11 13:30N 59°06' E 009°38'0 0.0
2018-Feb-11 13:00N 59°06' E 009°38'0 0.0
2018-Feb-11 12:30N 59°06' E 009°38'0 0.0
2018-Feb-11 12:00N 59°06' E 009°38'0 0.0
2018-Feb-11 11:30N 59°06' E 009°38'0 0.0
2018-Feb-11 11:00N 59°06' E 009°38'0 0.0
2018-Feb-11 10:30N 59°06' E 009°38'0 0.0
2018-Feb-11 10:00N 59°06' E 009°38'0 0.0
2018-Feb-11 09:30N 59°06' E 009°38'0 0.0
2018-Feb-11 09:00N 59°06' E 009°38'0 0.0
2018-Feb-11 08:28N 59°06' E 009°38'0 0.0
2018-Feb-11 07:58N 59°06' E 009°38'0 0.0
2018-Feb-11 07:30N 59°06' E 009°38'0 0.1
2018-Feb-11 06:59N 59°06' E 009°38'3 6.0
2018-Feb-11 06:30N 59°03' E 009°40'4 8.6
2018-Feb-11 06:00N 59°00' E 009°47'4 8.0
2018-Feb-11 05:30N 58°57' E 009°48'713.2
2018-Feb-11 05:00N 58°50' E 009°53'612.9
2018-Feb-11 04:30N 58°45' E 009°59'4213.0
2018-Feb-11 01:15N 58°07' E 010°36'313.2
2018-Feb-11 01:00N 58°04' E 010°39'713.2
2018-Feb-11 00:26N 57°58' E 010°47'613.1
2018-Feb-11 00:00N 57°54' E 010°54'713.1
2018-Feb-10 23:30N 57°50' E 011°03'612.8
2018-Feb-10 23:00N 57°45' E 011°12'713.4
2018-Feb-10 22:30N 57°41' E 011°21'713.4
2018-Feb-10 22:00N 57°36' E 011°31'611.4
2018-Feb-10 21:30N 57°35' E 011°41'1 2.0
2018-Feb-10 21:00N 57°36' E 011°42'0 0.0
2018-Feb-10 20:30N 57°36' E 011°42'0 0.0
2018-Feb-10 20:00N 57°36' E 011°42'0 0.0
2018-Feb-10 19:30N 57°36' E 011°42'0 0.1
2018-Feb-10 19:00N 57°36' E 011°42'0 0.1
2018-Feb-10 18:30N 57°36' E 011°42'0 0.0
2018-Feb-10 18:00N 57°36' E 011°42'0 0.0
2018-Feb-10 17:30N 57°36' E 011°42'1 2.8
2018-Feb-10 17:00N 57°35' E 011°40'612.1
2018-Feb-10 16:30N 57°37' E 011°29'713.4
2018-Feb-10 16:00N 57°41' E 011°19'713.2
2018-Feb-10 15:30N 57°44' E 011°08'713.2
2018-Feb-10 15:00N 57°49' E 010°59'713.8
2018-Feb-10 14:30N 57°54' E 010°51'713.1
2018-Feb-10 14:00N 57°57' E 010°40'814.4
2018-Feb-10 13:26N 57°56' E 010°25'  
Track history (hours):
 
Tides and Currents Weather Stations Pressure Air Temp Water Temp Dewpoint Dewpoint Depression Visibility Wind Speed Wind Dir Waves Ship Positions

Coral Palmata

Last reported at 2018-Feb-19 18:44 UTC. Time now 2018-Feb-20 00:18 UTC.
Position N 35°60' W 005°13'.

Length 115 m; beam 17 m.

Type: Tanker. MMSI: 636010990.

Date/timePositionNaut miles runAvg speedWind from/ knotsBaromVisibWave heightAir tempDewpointWater temp
2018-Feb-19 18:44N 35°60' W 005°13'416.9
2018-Feb-19 18:30N 35°59' W 005°18'816.5
2018-Feb-19 18:00N 35°57' W 005°28'21913.2
2018-Feb-19 01:20N 37°09' W 009°46'1414.2
2018-Feb-19 00:19N 37°23' W 009°50'514.8
2018-Feb-19 00:01N 37°28' W 009°51'714.3
2018-Feb-18 23:30N 37°35' W 009°53'714.0
2018-Feb-18 23:01N 37°41' W 009°55'713.9
2018-Feb-18 22:30N 37°48' W 009°56'714.2
2018-Feb-18 22:00N 37°55' W 009°58'714.5
2018-Feb-18 21:31N 38°02' W 010°00'714.5
2018-Feb-18 21:01N 38°09' W 010°02'714.6
2018-Feb-18 20:30N 38°16' W 010°05'714.4
2018-Feb-18 20:00N 38°23' W 010°06'714.3
2018-Feb-18 19:30N 38°30' W 010°08'814.6
2018-Feb-18 18:59N 38°38' W 010°10'714.4
2018-Feb-18 18:29N 38°45' W 010°11'714.3
2018-Feb-18 18:00N 38°52' W 010°11'714.2
2018-Feb-18 17:30N 38°59' W 010°11'714.3
2018-Feb-18 17:00N 39°06' W 010°12'714.0
2018-Feb-18 16:30N 39°13' W 010°12'61913.6
2018-Feb-16 18:56N 48°59' W 005°33'912.5
2018-Feb-16 18:12N 49°04' W 005°21'312.1
2018-Feb-16 17:58N 49°05' W 005°17'8313.3
2018-Feb-16 11:42N 49°46' W 003°26'314.8
2018-Feb-16 11:30N 49°48' W 003°22'814.5
2018-Feb-16 10:58N 49°52' W 003°12'614.0
2018-Feb-16 10:30N 49°55' W 003°03'1512.8
2018-Feb-16 09:18N 50°00' W 002°41'2310.9
2018-Feb-16 07:14N 50°06' W 002°07'310.7
2018-Feb-16 07:00N 50°07' W 002°03'611.2
2018-Feb-16 06:30N 50°08' W 001°55'612.0
2018-Feb-16 06:00N 50°10' W 001°46'613.0
2018-Feb-16 05:31N 50°12' W 001°36'714.0
2018-Feb-16 05:01N 50°14' W 001°25'4215.9
2018-Feb-16 02:21N 50°26' W 000°22'515.2
2018-Feb-16 02:00N 50°28' W 000°14'714.9
2018-Feb-16 01:31N 50°29' W 000°03'714.5
2018-Feb-16 01:00N 50°31' E 000°08'714.1
2018-Feb-16 00:30N 50°33' E 000°19'913.7
2018-Feb-15 23:53N 50°35' E 000°32'513.2
2018-Feb-15 23:30N 50°38' E 000°38'713.2
2018-Feb-15 22:59N 50°42' E 000°47'613.1
2018-Feb-15 22:30N 50°46' E 000°54'713.2
2018-Feb-15 21:59N 50°51' E 001°03'713.7
2018-Feb-15 21:29N 50°55' E 001°11'714.6
2018-Feb-15 20:58N 51°00' E 001°20'816.3
2018-Feb-15 20:31N 51°05' E 001°29'917.5
2018-Feb-15 20:00N 51°10' E 001°40'816.7
2018-Feb-15 19:30N 51°17' E 001°48'816.2
2018-Feb-15 19:01N 51°24' E 001°54'815.4
2018-Feb-15 18:30N 51°30' E 002°02'714.6
2018-Feb-15 18:01N 51°36' E 002°09'714.3
2018-Feb-15 17:30N 51°41' E 002°17'713.6
2018-Feb-15 16:59N 51°46' E 002°25'1312.8
2018-Feb-15 15:59N 51°56' E 002°38'1112.6
2018-Feb-15 15:09N 52°05' E 002°48'40910.6
2018-Feb-14 00:45N 57°59' E 008°43'313.9
2018-Feb-14 00:30N 58°02' E 008°47'1014.2
2018-Feb-13 23:49N 58°09' E 008°60'514.7
2018-Feb-13 23:29N 58°13' E 009°06'2714.3
2018-Feb-13 21:34N 58°34' E 009°39'114.2
2018-Feb-13 21:29N 58°35' E 009°40'714.5
2018-Feb-13 21:00N 58°42' E 009°42'715.2
2018-Feb-13 20:30N 58°49' E 009°44'714.6
2018-Feb-13 20:00N 58°56' E 009°47'510.4
2018-Feb-13 19:30N 59°01' E 009°45'4 8.5
2018-Feb-13 19:00N 59°04' E 009°39'2 4.1
2018-Feb-13 18:30N 59°06' E 009°36'0 0.0
2018-Feb-13 18:00N 59°06' E 009°36'0 0.0
2018-Feb-13 17:30N 59°06' E 009°36'0 0.0
2018-Feb-13 17:00N 59°06' E 009°36'0 0.0
2018-Feb-13 16:30N 59°06' E 009°36'0 0.0
2018-Feb-13 16:00N 59°06' E 009°36'0 0.0
2018-Feb-13 15:30N 59°06' E 009°36'0 0.0
2018-Feb-13 15:00N 59°06' E 009°36'0 0.0
2018-Feb-13 14:30N 59°06' E 009°36'0 0.0
2018-Feb-13 14:00N 59°06' E 009°36'0 0.0
2018-Feb-13 13:30N 59°06' E 009°36'0 0.0
2018-Feb-13 13:00N 59°06' E 009°36'0 0.0
2018-Feb-13 12:30N 59°06' E 009°36'0 0.0
2018-Feb-13 12:00N 59°06' E 009°36'0 0.0
2018-Feb-13 11:30N 59°06' E 009°36'0 0.0
2018-Feb-13 11:00N 59°06' E 009°36'0 0.0
2018-Feb-13 10:30N 59°06' E 009°36'0 0.0
2018-Feb-13 09:59N 59°06' E 009°36'0 0.0
2018-Feb-13 09:29N 59°06' E 009°36'0 0.0
2018-Feb-13 08:59N 59°06' E 009°36'0 0.0
2018-Feb-13 08:29N 59°06' E 009°36'0 0.0
2018-Feb-13 07:59N 59°06' E 009°36'0 0.0
2018-Feb-13 07:29N 59°06' E 009°36'0 0.0
2018-Feb-13 06:59N 59°06' E 009°36'0 0.0
2018-Feb-13 06:29N 59°06' E 009°36'0 0.0
2018-Feb-13 05:59N 59°06' E 009°36'0 0.0
2018-Feb-13 05:29N 59°06' E 009°36'0 0.0
2018-Feb-13 04:59N 59°06' E 009°36'0 0.0
2018-Feb-13 04:29N 59°06' E 009°36'0 0.0
2018-Feb-13 03:59N 59°06' E 009°36'0 0.0
2018-Feb-13 03:29N 59°06' E 009°36'0 0.0
2018-Feb-13 02:59N 59°06' E 009°36'0 0.0
2018-Feb-13 02:29N 59°06' E 009°36'0 0.0
2018-Feb-13 01:59N 59°06' E 009°36'0 0.0
2018-Feb-13 01:29N 59°06' E 009°36'0 0.0
2018-Feb-13 00:59N 59°06' E 009°36'0 0.5
2018-Feb-13 00:30N 59°06' E 009°36'1 2.2
2018-Feb-13 00:00N 59°06' E 009°38'0 0.0
2018-Feb-12 23:30N 59°06' E 009°38'0 0.0
2018-Feb-12 23:00N 59°06' E 009°38'0 0.0
2018-Feb-12 22:30N 59°06' E 009°38'0 0.0
2018-Feb-12 22:00N 59°06' E 009°38'0 0.0
2018-Feb-12 21:30N 59°06' E 009°38'0 0.0
2018-Feb-12 21:00N 59°06' E 009°38'0 0.0
2018-Feb-12 20:30N 59°06' E 009°38'0 0.0
2018-Feb-12 20:00N 59°06' E 009°38'0 0.1
2018-Feb-12 19:30N 59°06' E 009°38'0 0.0
2018-Feb-12 19:00N 59°06' E 009°38'0 0.0
2018-Feb-12 18:30N 59°06' E 009°38'0 0.0
2018-Feb-12 18:00N 59°06' E 009°38'0 0.0
2018-Feb-12 17:30N 59°06' E 009°38'0 0.0
2018-Feb-12 17:00N 59°06' E 009°38'0 0.0
2018-Feb-12 16:30N 59°06' E 009°38'0 0.0
2018-Feb-12 16:00N 59°06' E 009°38'0 0.0
2018-Feb-12 15:30N 59°06' E 009°38'0 0.1
2018-Feb-12 15:00N 59°06' E 009°38'0 0.0
2018-Feb-12 14:30N 59°06' E 009°38'0 0.0
2018-Feb-12 14:00N 59°06' E 009°38'0 0.0
2018-Feb-12 13:30N 59°06' E 009°38'0 0.0
2018-Feb-12 13:00N 59°06' E 009°38'0 0.0
2018-Feb-12 12:30N 59°06' E 009°38'0 0.0
2018-Feb-12 12:00N 59°06' E 009°38'0 0.0
2018-Feb-12 11:30N 59°06' E 009°38'0 0.1
2018-Feb-12 11:00N 59°06' E 009°38'0 0.0
2018-Feb-12 10:30N 59°06' E 009°38'0 0.0
2018-Feb-12 10:00N 59°06' E 009°38'0 0.1
2018-Feb-12 09:30N 59°06' E 009°38'0 0.0
2018-Feb-12 09:00N 59°06' E 009°38'0 0.0
2018-Feb-12 08:30N 59°06' E 009°38'0 0.0
2018-Feb-12 08:00N 59°06' E 009°38'0 0.0
2018-Feb-12 07:30N 59°06' E 009°38'0 0.1
2018-Feb-12 07:00N 59°06' E 009°38'0 0.1
2018-Feb-12 06:30N 59°06' E 009°38'0 0.0
2018-Feb-12 06:00N 59°06' E 009°38'0 0.0
2018-Feb-12 05:30N 59°06' E 009°38'0 0.0
2018-Feb-12 05:00N 59°06' E 009°38'0 0.0
2018-Feb-12 04:30N 59°06' E 009°38'0 0.0
2018-Feb-12 04:00N 59°06' E 009°38'0 0.0
2018-Feb-12 03:30N 59°06' E 009°38'0 0.0
2018-Feb-12 03:00N 59°06' E 009°38'0 0.0
2018-Feb-12 02:30N 59°06' E 009°38'0 0.0
2018-Feb-12 02:00N 59°06' E 009°38'0 0.0
2018-Feb-12 01:30N 59°06' E 009°38'0 0.0
2018-Feb-12 01:00N 59°06' E 009°38'0 0.1
2018-Feb-12 00:30N 59°06' E 009°38'0 0.0
2018-Feb-12 00:00N 59°06' E 009°38'0 0.0
2018-Feb-11 23:30N 59°06' E 009°38'0 0.1
2018-Feb-11 23:00N 59°06' E 009°38'0 0.0
2018-Feb-11 22:30N 59°06' E 009°38'0 0.0
2018-Feb-11 22:00N 59°06' E 009°38'0 0.0
2018-Feb-11 21:30N 59°06' E 009°38'0 0.1
2018-Feb-11 21:00N 59°06' E 009°38'0 0.1
2018-Feb-11 20:30N 59°06' E 009°38'0 0.0
2018-Feb-11 20:00N 59°06' E 009°38'0 0.0
2018-Feb-11 19:30N 59°06' E 009°38'0 0.0
2018-Feb-11 19:00N 59°06' E 009°38'0 0.0
2018-Feb-11 18:30N 59°06' E 009°38'0 0.0
2018-Feb-11 18:00N 59°06' E 009°38'0 0.0
2018-Feb-11 17:30N 59°06' E 009°38'0 0.0
2018-Feb-11 17:00N 59°06' E 009°38'0 0.0
2018-Feb-11 16:30N 59°06' E 009°38'0 0.0
2018-Feb-11 16:00N 59°06' E 009°38'0 0.0
2018-Feb-11 15:30N 59°06' E 009°38'0 0.0
2018-Feb-11 15:00N 59°06' E 009°38'0 0.0
2018-Feb-11 14:30N 59°06' E 009°38'0 0.0
2018-Feb-11 14:00N 59°06' E 009°38'0 0.0
2018-Feb-11 13:30N 59°06' E 009°38'0 0.0
2018-Feb-11 13:00N 59°06' E 009°38'0 0.0
2018-Feb-11 12:30N 59°06' E 009°38'0 0.0
2018-Feb-11 12:00N 59°06' E 009°38'0 0.0
2018-Feb-11 11:30N 59°06' E 009°38'0 0.0
2018-Feb-11 11:00N 59°06' E 009°38'0 0.0
2018-Feb-11 10:30N 59°06' E 009°38'0 0.0
2018-Feb-11 10:00N 59°06' E 009°38'0 0.0
2018-Feb-11 09:30N 59°06' E 009°38'0 0.0
2018-Feb-11 09:00N 59°06' E 009°38'0 0.0
2018-Feb-11 08:28N 59°06' E 009°38'0 0.0
2018-Feb-11 07:58N 59°06' E 009°38'0 0.0
2018-Feb-11 07:30N 59°06' E 009°38'0 0.1
2018-Feb-11 06:59N 59°06' E 009°38'3 6.0
2018-Feb-11 06:30N 59°03' E 009°40'4 8.6
2018-Feb-11 06:00N 59°00' E 009°47'4 8.0
2018-Feb-11 05:30N 58°57' E 009°48'713.2
2018-Feb-11 05:00N 58°50' E 009°53'612.9
2018-Feb-11 04:30N 58°45' E 009°59'4213.0
2018-Feb-11 01:15N 58°07' E 010°36'313.2
2018-Feb-11 01:00N 58°04' E 010°39'713.2
2018-Feb-11 00:26N 57°58' E 010°47'613.1
2018-Feb-11 00:00N 57°54' E 010°54'713.1
2018-Feb-10 23:30N 57°50' E 011°03'612.8
2018-Feb-10 23:00N 57°45' E 011°12'713.4
2018-Feb-10 22:30N 57°41' E 011°21'713.4
2018-Feb-10 22:00N 57°36' E 011°31'611.4
2018-Feb-10 21:30N 57°35' E 011°41'1 2.0
2018-Feb-10 21:00N 57°36' E 011°42'0 0.0
2018-Feb-10 20:30N 57°36' E 011°42'0 0.0
2018-Feb-10 20:00N 57°36' E 011°42'0 0.0
2018-Feb-10 19:30N 57°36' E 011°42'0 0.1
2018-Feb-10 19:00N 57°36' E 011°42'0 0.1
2018-Feb-10 18:30N 57°36' E 011°42'0 0.0
2018-Feb-10 18:00N 57°36' E 011°42'0 0.0
2018-Feb-10 17:30N 57°36' E 011°42'1 2.8
2018-Feb-10 17:00N 57°35' E 011°40'612.1
2018-Feb-10 16:30N 57°37' E 011°29'713.4
2018-Feb-10 16:00N 57°41' E 011°19'713.2
2018-Feb-10 15:30N 57°44' E 011°08'713.2
2018-Feb-10 15:00N 57°49' E 010°59'713.8
2018-Feb-10 14:30N 57°54' E 010°51'713.1
2018-Feb-10 14:00N 57°57' E 010°40'814.4
2018-Feb-10 13:26N 57°56' E 010°25'  

Dump ship's entire track history